Allhallows, United Kingdom
Current Conditions -  °F | °C
As of 11:20 AM on Tuesday 21 Oct 2014 (Local Time) from EGMC Reporting Station
Few Clouds Few Clouds  
Wind Chill: 55°   Ceiling: Unl
Heat Index: 55°   Visibility: 6mi
Dew Point: 43°   Wind: 23mph
Humidity: 63%   Direction: 280°W
Pressure: 29.59"   Gusts: 37mph
Location:  51.47°N, 0.64°E
Report Text: EGMC 211020Z 28020G32KT 260V320 9999 FEW030 13/06 Q1002
Loading
Personal Weather Stations






























Interactive Weather Map New forecast layout! Learn more

10-Day Weather Forecast

Advertisements
Track Severe Weather on mobile